Overview Statistics Trail Chart Weather Telemetry Raw packets
 

This is the latest recevied weather packets stored in our database for station/object KY0TEQ-13. If no packets are shown the sender has not sent any weather packets the latest 10 day(s).

<< 15 16 17 18 19 20 21 >>
Time Temp. Humidity Pressure Rain* Wind** Luminosity Snow
1788584059 15° C 56% 1308.3 hPa 0 mm - 0 W/m² -
1788583755 15° C 56% 1308 hPa 0 mm - 0 W/m² -
1788583450 15° C 55% 1308.2 hPa 0 mm - 0 W/m² -
1788583149 15.56° C 53% 1308 hPa 0 mm - 0 W/m² -
1788582843 15.56° C 53% 1308.2 hPa 0 mm - 0 W/m² -
1788582543 15.56° C 52% 1308.3 hPa 0 mm - 0 W/m² -
1788582238 16.11° C 51% 1308 hPa 0 mm - 0 W/m² -
1788581933 16.11° C 51% 1308.2 hPa 0 mm - 0 W/m² -
1788581629 15.56° C 51% 1308.3 hPa 0 mm - 0 W/m² -
1788581323 15° C 53% 1307.9 hPa 0 mm - 0 W/m² -
1788581022 15.56° C 53% 1308.2 hPa 0 mm - 0 W/m² -
1788580722 15.56° C 53% 1308.3 hPa 0 mm - 0 W/m² -
1788580418 15.56° C 54% 1308.3 hPa 0 mm - 0 W/m² -
1788580114 15.56° C 53% 1308 hPa 0 mm - 0 W/m² -
1788579809 16.67° C 51% 1307.9 hPa 0 mm - 0 W/m² -
1788579508 17.78° C 46% 1308 hPa 0 mm - 0 W/m² -
1788579203 17.78° C 47% 1307.8 hPa 0 mm - 0 W/m² -
1788578903 16.67° C 50% 1308 hPa 0 mm - 0 W/m² -
1788578598 16.67° C 52% 1307.9 hPa 0 mm - 0 W/m² -
1788578293 17.78° C 48% 1308 hPa 0 mm - 0 W/m² -
1788578014 20° C 43% 1307.8 hPa 0 mm - 0 W/m² -
1788577684 20.56° C 40% 1307.6 hPa 0 mm - 0 W/m² -
1788577380 20.56° C 40% 1307.4 hPa 0 mm - 0 W/m² -
1788577079 20.56° C 40% 1307.8 hPa 0 mm - 0 W/m² -
1788576775 20° C 41% 1307.4 hPa 0 mm - 0 W/m² -

* Rain latest hour (hover to see other rain measurements)
** Current wind speed in m/s (hover to see current wind gust speed)